createdAt,value
2019-04-21T00:00:39.852Z,1020.23
2019-04-21T00:01:44.147Z,1020.24
2019-04-21T00:03:39.838Z,1020.19
2019-04-21T00:04:48.156Z,1020.16
2019-04-21T00:07:03.274Z,1020.17
2019-04-21T00:07:45.036Z,1020.15
2019-04-21T00:09:40.041Z,1020.16
2019-04-21T00:10:40.606Z,1020.07
2019-04-21T00:12:29.856Z,1020.07
2019-04-21T00:13:28.098Z,1020.05
2019-04-21T00:15:16.086Z,1020.01
2019-04-21T00:16:10.173Z,1020.04
2019-04-21T00:18:02.467Z,1020.02
2019-04-21T00:19:07.121Z,1019.94
2019-04-21T00:20:55.206Z,1019.95
2019-04-21T00:22:01.581Z,1019.93
2019-04-21T00:24:00.391Z,1019.88
2019-04-21T00:25:04.304Z,1019.88
2019-04-21T00:26:58.992Z,1019.83
2019-04-21T00:27:50.368Z,1019.88
2019-04-21T00:29:49.704Z,1019.78
2019-04-21T00:30:50.891Z,1019.81
2019-04-21T00:32:36.885Z,1019.82
2019-04-21T00:33:28.848Z,1019.81
2019-04-21T00:35:22.227Z,1019.79
2019-04-21T00:36:25.269Z,1019.79
2019-04-21T00:38:34.584Z,1019.75
2019-04-21T00:39:36.404Z,1019.77
2019-04-21T00:41:25.995Z,1019.75
2019-04-21T00:42:24.153Z,1019.74
2019-04-21T00:44:08.733Z,1019.74
2019-04-21T00:45:12.053Z,1019.72
2019-04-21T00:47:01.829Z,1019.71
2019-04-21T00:48:11.380Z,1019.69
2019-04-21T00:50:05.234Z,1019.68
2019-04-21T00:51:16.299Z,1019.63
2019-04-21T00:54:04.014Z,1019.61
2019-04-21T00:55:57.628Z,1019.58
2019-04-21T00:56:56.719Z,1019.57
2019-04-21T00:58:49.862Z,1019.57
2019-04-21T00:59:46.365Z,1019.54
2019-04-21T01:01:31.421Z,1019.57
2019-04-21T01:02:41.631Z,1019.55
2019-04-21T01:04:30.676Z,1019.52
2019-04-21T01:05:28.286Z,1019.49
2019-04-21T01:07:19.441Z,1019.46
2019-04-21T01:08:19.863Z,1019.41
2019-04-21T01:10:06.681Z,1019.41
2019-04-21T01:11:17.865Z,1019.40
2019-04-21T01:13:09.544Z,1019.39
2019-04-21T01:14:16.631Z,1019.33
2019-04-21T01:16:03.342Z,1019.37
2019-04-21T01:17:06.816Z,1019.37
2019-04-21T01:18:49.356Z,1019.35
2019-04-21T01:19:49.137Z,1019.36
2019-04-21T01:21:26.009Z,1019.35
2019-04-21T01:22:26.067Z,1019.32
2019-04-21T01:24:25.919Z,1019.33
2019-04-21T01:25:28.211Z,1019.32
2019-04-21T01:27:22.689Z,1019.29
2019-04-21T01:28:29.067Z,1019.30
2019-04-21T01:30:32.583Z,1019.33
2019-04-21T01:31:23.785Z,1019.25
2019-04-21T01:33:21.657Z,1019.26
2019-04-21T01:34:23.304Z,1019.24
2019-04-21T01:36:08.416Z,1019.24
2019-04-21T01:37:03.968Z,1019.25
2019-04-21T01:39:08.017Z,1019.26
2019-04-21T01:40:08.452Z,1019.27
2019-04-21T01:42:00.058Z,1019.18
2019-04-21T01:42:58.024Z,1019.19
2019-04-21T01:44:56.804Z,1019.19
2019-04-21T01:45:49.181Z,1019.17
2019-04-21T01:47:44.689Z,1019.12
2019-04-21T01:48:39.134Z,1019.11
2019-04-21T01:50:34.514Z,1019.14
2019-04-21T01:51:36.956Z,1019.10
2019-04-21T01:53:30.731Z,1019.10
2019-04-21T01:54:33.258Z,1019.07
2019-04-21T01:56:24.103Z,1019.05
2019-04-21T01:57:17.619Z,1019.06
2019-04-21T01:59:04.939Z,1019.00
2019-04-21T02:00:06.257Z,1018.99
2019-04-21T02:02:15.983Z,1018.97
2019-04-21T02:03:28.520Z,1018.95
2019-04-21T02:05:11.863Z,1018.98
2019-04-21T02:06:07.695Z,1019.00
2019-04-21T02:07:55.216Z,1018.97
2019-04-21T02:08:54.987Z,1018.95
2019-04-21T02:10:54.650Z,1018.94
2019-04-21T02:11:50.858Z,1018.92
2019-04-21T02:13:46.853Z,1018.86
2019-04-21T02:14:47.382Z,1018.86
2019-04-21T02:16:39.199Z,1018.83
2019-04-21T02:17:34.255Z,1018.85
2019-04-21T02:19:23.603Z,1018.83
2019-04-21T02:20:18.235Z,1018.82
2019-04-21T02:22:19.198Z,1018.80
2019-04-21T02:23:34.664Z,1018.83
2019-04-21T02:25:15.130Z,1018.80
2019-04-21T02:26:21.154Z,1018.78
2019-04-21T02:28:13.401Z,1018.75
2019-04-21T02:29:08.458Z,1018.74
2019-04-21T02:31:18.656Z,1018.75
2019-04-21T02:32:10.553Z,1018.79
2019-04-21T02:34:06.667Z,1018.73
2019-04-21T02:37:07.429Z,1018.74
2019-04-21T02:39:56.661Z,1018.76
2019-04-21T02:42:46.617Z,1018.68
2019-04-21T02:43:46.200Z,1018.69
2019-04-21T02:46:37.969Z,1018.64
2019-04-21T02:48:32.927Z,1018.59
2019-04-21T02:49:35.370Z,1018.57
2019-04-21T02:51:28.174Z,1018.59
2019-04-21T02:55:06.308Z,1018.46
2019-04-21T02:57:09.167Z,1018.48
2019-04-21T02:58:06.140Z,1018.46
2019-04-21T03:01:07.531Z,1018.44
2019-04-21T03:03:55.025Z,1018.43
2019-04-21T03:05:58.790Z,1018.40
2019-04-21T03:06:59.397Z,1018.37
2019-04-21T03:08:49.671Z,1018.40
2019-04-21T03:09:36.578Z,1018.37
2019-04-21T03:11:28.954Z,1018.37
2019-04-21T03:14:40.848Z,1018.32
2019-04-21T03:15:29.245Z,1018.31
2019-04-21T03:17:22.306Z,1018.26
2019-04-21T03:23:09.380Z,1018.24
2019-04-21T03:26:07.297Z,1018.22
2019-04-21T03:27:12.615Z,1018.20
2019-04-21T03:29:57.093Z,1018.15
2019-04-21T03:38:39.087Z,1018.08
2019-04-21T03:40:18.712Z,1018.12
2019-04-21T03:41:18.898Z,1018.06
2019-04-21T03:43:20.288Z,1018.09
2019-04-21T03:44:14.420Z,1018.02
2019-04-21T03:46:12.064Z,1018.06
2019-04-21T03:51:59.206Z,1018.02
2019-04-21T03:53:09.672Z,1018.04
2019-04-21T03:55:05.554Z,1017.99
2019-04-21T03:57:57.362Z,1017.96
2019-04-21T04:01:32.414Z,1017.98
2019-04-21T04:03:42.202Z,1018.00
2019-04-21T04:04:27.933Z,1017.96
2019-04-21T04:06:20.509Z,1017.96
2019-04-21T04:07:31.202Z,1017.95
2019-04-21T04:09:18.632Z,1017.92
2019-04-21T04:10:13.904Z,1017.95
2019-04-21T04:12:06.587Z,1017.89
2019-04-21T04:13:05.892Z,1017.95
2019-04-21T04:15:03.053Z,1017.91
2019-04-21T04:16:05.965Z,1017.94
2019-04-21T04:17:49.809Z,1017.96
2019-04-21T04:18:53.152Z,1017.93
2019-04-21T04:21:03.070Z,1017.94
2019-04-21T04:21:56.381Z,1017.99
2019-04-21T04:23:47.371Z,1017.96
2019-04-21T04:24:39.255Z,1017.96
2019-04-21T04:26:33.592Z,1017.96
2019-04-21T04:27:47.019Z,1017.95
2019-04-21T04:30:29.642Z,1017.95
2019-04-21T04:32:28.415Z,1017.90
2019-04-21T04:33:34.405Z,1017.89
2019-04-21T04:35:34.004Z,1017.88
2019-04-21T04:36:24.355Z,1017.90
2019-04-21T04:38:07.192Z,1017.87
2019-04-21T04:39:22.074Z,1017.90
2019-04-21T04:41:01.046Z,1017.87
2019-04-21T04:42:04.427Z,1017.88
2019-04-21T04:43:57.322Z,1017.88
2019-04-21T04:47:47.320Z,1017.88
2019-04-21T04:49:43.258Z,1017.90
2019-04-21T04:50:43.390Z,1017.88
2019-04-21T04:52:32.662Z,1017.93
2019-04-21T04:53:40.126Z,1017.89
2019-04-21T04:55:27.073Z,1017.93
2019-04-21T04:56:18.295Z,1017.90
2019-04-21T04:58:42.722Z,1017.89
2019-04-21T05:04:06.364Z,1017.83
2019-04-21T05:07:11.504Z,1017.80
2019-04-21T05:08:01.630Z,1017.81
2019-04-21T05:09:47.223Z,1017.83
2019-04-21T05:10:57.489Z,1017.84
2019-04-21T05:12:38.536Z,1017.79
2019-04-21T05:13:51.156Z,1017.82
2019-04-21T05:15:23.712Z,1017.81
2019-04-21T05:16:43.140Z,1017.83
2019-04-21T05:18:30.729Z,1017.80
2019-04-21T05:19:24.488Z,1017.82
2019-04-21T05:21:23.229Z,1017.78
2019-04-21T05:23:59.839Z,1017.78
2019-04-21T05:24:58.405Z,1017.82
2019-04-21T05:26:52.893Z,1017.73
2019-04-21T05:27:54.049Z,1017.77
2019-04-21T05:29:56.772Z,1017.78
2019-04-21T05:31:00.983Z,1017.82
2019-04-21T05:32:45.099Z,1017.79
2019-04-21T05:33:47.815Z,1017.79
2019-04-21T05:35:37.306Z,1017.81
2019-04-21T05:36:37.698Z,1017.85
2019-04-21T05:38:27.274Z,1017.85
2019-04-21T05:39:24.783Z,1017.81
2019-04-21T05:41:11.072Z,1017.79
2019-04-21T05:42:08.943Z,1017.83
2019-04-21T05:44:19.338Z,1017.78
2019-04-21T05:45:22.846Z,1017.77
2019-04-21T05:47:26.553Z,1017.79
2019-04-21T05:48:18.983Z,1017.80
2019-04-21T05:49:59.518Z,1017.79
2019-04-21T05:50:59.244Z,1017.77
2019-04-21T05:52:47.647Z,1017.75
2019-04-21T05:53:56.104Z,1017.77
2019-04-21T05:55:51.756Z,1017.79
2019-04-21T05:56:48.701Z,1017.80
2019-04-21T05:58:40.877Z,1017.78
2019-04-21T06:02:56.090Z,1017.82
2019-04-21T06:04:41.602Z,1017.78
2019-04-21T06:05:37.827Z,1017.75
2019-04-21T06:07:23.118Z,1017.80
2019-04-21T06:08:19.986Z,1017.78
2019-04-21T06:10:12.641Z,1017.86
2019-04-21T06:13:13.427Z,1017.90
2019-04-21T06:14:10.829Z,1017.87
2019-04-21T06:16:03.984Z,1017.84
2019-04-21T06:17:01.626Z,1017.89
2019-04-21T06:18:57.989Z,1017.97
2019-04-21T06:19:58.988Z,1017.99
2019-04-21T06:21:44.779Z,1018.00
2019-04-21T06:24:42.212Z,1017.98
2019-04-21T06:25:51.814Z,1017.98
2019-04-21T06:27:44.325Z,1018.08
2019-04-21T06:28:33.735Z,1018.09
2019-04-21T06:30:28.508Z,1018.07
2019-04-21T06:33:20.257Z,1018.04
2019-04-21T06:34:16.720Z,1018.12
2019-04-21T06:37:34.838Z,1018.11
2019-04-21T06:40:17.737Z,1018.06
2019-04-21T06:42:01.320Z,1018.06
2019-04-21T06:43:16.323Z,1018.12
2019-04-21T06:44:53.776Z,1018.09
2019-04-21T06:46:10.959Z,1018.10
2019-04-21T06:47:53.983Z,1018.11
2019-04-21T06:48:49.344Z,1018.09
2019-04-21T06:50:39.530Z,1018.08
2019-04-21T06:51:38.465Z,1018.09
2019-04-21T06:53:42.093Z,1018.07
2019-04-21T06:54:35.233Z,1018.06
2019-04-21T06:56:32.126Z,1018.04
2019-04-21T06:57:23.182Z,1017.98
2019-04-21T06:59:09.663Z,1018.08
2019-04-21T07:00:13.486Z,1018.07
2019-04-21T07:02:30.758Z,1018.08
2019-04-21T07:03:17.123Z,1018.05
2019-04-21T07:05:07.842Z,1018.07
2019-04-21T07:06:06.999Z,1018.11
2019-04-21T07:08:07.724Z,1018.08
2019-04-21T07:09:06.371Z,1018.11
2019-04-21T07:10:46.325Z,1018.10
2019-04-21T07:11:43.974Z,1018.07
2019-04-21T07:13:41.583Z,1018.08
2019-04-21T07:16:38.626Z,1018.15
2019-04-21T07:17:37.629Z,1018.14
2019-04-21T07:19:40.973Z,1018.15
2019-04-21T07:20:21.752Z,1018.15
2019-04-21T07:22:24.731Z,1018.20
2019-04-21T07:23:28.500Z,1018.24
2019-04-21T07:25:18.641Z,1018.43
2019-04-21T07:26:16.018Z,1018.69
2019-04-21T07:28:07.440Z,1019.25
2019-04-21T07:29:07.919Z,1019.52
2019-04-21T07:31:03.767Z,1019.72
2019-04-21T07:34:51.776Z,1018.80
2019-04-21T07:36:52.628Z,1018.74
2019-04-21T07:37:48.101Z,1018.69
2019-04-21T07:39:35.760Z,1018.65
2019-04-21T07:40:36.530Z,1018.65
2019-04-21T07:42:24.063Z,1018.73
2019-04-21T07:43:25.929Z,1018.74
2019-04-21T07:45:17.986Z,1018.77
2019-04-21T07:46:17.199Z,1018.70
2019-04-21T07:48:18.941Z,1018.72
2019-04-21T07:49:15.537Z,1018.73
2019-04-21T07:51:11.128Z,1018.67
2019-04-21T07:52:11.347Z,1018.68
2019-04-21T07:54:26.903Z,1018.63
2019-04-21T07:55:05.938Z,1018.61
2019-04-21T07:56:40.623Z,1018.45
2019-04-21T07:57:52.655Z,1018.34
2019-04-21T08:00:01.204Z,1018.29
2019-04-21T08:00:49.541Z,1018.36
2019-04-21T08:02:40.649Z,1018.24
2019-04-21T08:03:39.903Z,1018.23
2019-04-21T08:05:35.539Z,1018.21
2019-04-21T08:06:43.702Z,1018.17
2019-04-21T08:08:26.853Z,1018.21
2019-04-21T08:09:29.459Z,1018.13
2019-04-21T08:11:24.342Z,1018.16
2019-04-21T08:12:14.498Z,1018.28
2019-04-21T08:14:16.995Z,1018.24
2019-04-21T08:15:21.755Z,1018.22
2019-04-21T08:17:09.828Z,1018.20
2019-04-21T08:18:07.074Z,1018.09
2019-04-21T08:19:53.712Z,1018.09
2019-04-21T08:21:02.465Z,1018.10
2019-04-21T08:23:02.535Z,1018.10
2019-04-21T08:23:48.583Z,1018.05
2019-04-21T08:25:56.290Z,1017.87
2019-04-21T08:27:06.283Z,1017.82
2019-04-21T08:28:42.705Z,1017.76
2019-04-21T08:29:40.826Z,1017.81
2019-04-21T08:31:46.396Z,1017.86
2019-04-21T08:32:49.637Z,1017.85
2019-04-21T08:34:28.363Z,1017.82
2019-04-21T08:37:18.251Z,1017.75
2019-04-21T08:38:20.354Z,1017.75
2019-04-21T08:40:15.766Z,1017.75
2019-04-21T08:41:14.945Z,1017.73
2019-04-21T08:42:59.982Z,1017.73
2019-04-21T08:44:02.318Z,1017.69
2019-04-21T08:46:13.010Z,1017.64
2019-04-21T08:46:58.904Z,1017.63
2019-04-21T08:49:06.244Z,1017.57
2019-04-21T08:49:47.521Z,1017.57
2019-04-21T08:51:50.702Z,1017.58
2019-04-21T08:52:49.270Z,1017.58
2019-04-21T08:54:36.771Z,1017.56
2019-04-21T08:55:42.966Z,1017.54
2019-04-21T08:57:39.639Z,1017.51
2019-04-21T08:58:39.500Z,1017.51
2019-04-21T09:00:29.246Z,1017.51
2019-04-21T09:01:23.799Z,1017.49
2019-04-21T09:03:19.554Z,1017.44
2019-04-21T09:04:13.281Z,1017.44
2019-04-21T09:06:17.567Z,1017.41
2019-04-21T09:09:08.187Z,1017.38
2019-04-21T09:10:02.829Z,1017.31
2019-04-21T09:11:54.889Z,1017.32
2019-04-21T09:12:54.751Z,1017.26
2019-04-21T09:14:51.251Z,1017.18
2019-04-21T09:15:41.916Z,1017.18
2019-04-21T09:17:32.904Z,1016.99
2019-04-21T09:18:33.734Z,1016.92
2019-04-21T09:20:43.983Z,1016.91
2019-04-21T09:21:31.337Z,1016.96
2019-04-21T09:23:26.113Z,1016.91
2019-04-21T09:24:31.539Z,1016.91
2019-04-21T09:26:18.602Z,1016.89
2019-04-21T09:27:15.814Z,1016.87
2019-04-21T09:29:04.369Z,1016.85
2019-04-21T09:30:00.312Z,1016.80
2019-04-21T09:31:48.489Z,1016.79
2019-04-21T09:32:49.476Z,1016.77
2019-04-21T09:34:43.815Z,1016.72
2019-04-21T09:35:47.466Z,1016.70
2019-04-21T09:37:45.754Z,1016.69
2019-04-21T09:38:38.306Z,1016.69
2019-04-21T09:40:32.683Z,1016.62
2019-04-21T09:41:27.802Z,1016.62
2019-04-21T09:43:31.724Z,1016.61
2019-04-21T09:44:25.443Z,1016.61
2019-04-21T09:46:12.248Z,1016.55
2019-04-21T09:47:13.445Z,1016.57
2019-04-21T09:49:08.593Z,1016.57
2019-04-21T09:50:06.611Z,1016.58
2019-04-21T09:51:58.379Z,1016.54
2019-04-21T09:53:05.415Z,1016.51
2019-04-21T09:55:00.881Z,1016.45
2019-04-21T09:55:58.226Z,1016.44
2019-04-21T09:57:50.053Z,1016.48
2019-04-21T09:58:49.765Z,1016.46
2019-04-21T10:00:46.146Z,1016.45
2019-04-21T10:01:50.084Z,1016.43
2019-04-21T10:03:37.079Z,1016.42
2019-04-21T10:04:31.131Z,1016.37
2019-04-21T10:06:23.833Z,1016.37
2019-04-21T10:07:31.057Z,1016.34
2019-04-21T10:09:19.737Z,1016.34
2019-04-21T10:10:17.252Z,1016.31
2019-04-21T10:12:09.910Z,1016.35
2019-04-21T10:13:10.632Z,1016.30
2019-04-21T10:15:04.203Z,1016.27
2019-04-21T10:16:03.161Z,1016.27
2019-04-21T10:17:56.160Z,1016.14
2019-04-21T10:18:56.777Z,1016.17
2019-04-21T10:20:49.221Z,1016.18
2019-04-21T10:21:50.141Z,1016.18
2019-04-21T10:23:42.132Z,1016.12
2019-04-21T10:24:42.475Z,1016.09
2019-04-21T10:26:35.604Z,1016.08
2019-04-21T10:27:35.234Z,1016.04
2019-04-21T10:29:30.923Z,1016.00
2019-04-21T10:30:28.730Z,1015.98
2019-04-21T10:32:23.447Z,1016.02
2019-04-21T10:33:22.044Z,1016.00
2019-04-21T10:35:15.010Z,1015.94
2019-04-21T10:36:15.187Z,1015.94
2019-04-21T10:38:20.494Z,1015.89
2019-04-21T10:39:07.494Z,1015.91
2019-04-21T10:41:01.368Z,1015.86
2019-04-21T10:42:01.507Z,1015.83
2019-04-21T10:43:53.582Z,1015.80
2019-04-21T10:44:54.744Z,1015.84
2019-04-21T10:46:48.400Z,1015.72
2019-04-21T10:47:47.194Z,1015.74
2019-04-21T10:49:40.282Z,1015.69
2019-04-21T10:50:41.068Z,1015.68
2019-04-21T10:52:34.767Z,1015.67
2019-04-21T10:53:32.819Z,1015.66
2019-04-21T10:55:41.487Z,1015.61
2019-04-21T10:56:31.491Z,1015.60
2019-04-21T10:58:20.291Z,1015.53
2019-04-21T10:59:20.332Z,1015.50
2019-04-21T11:01:12.747Z,1015.52
2019-04-21T11:02:12.791Z,1015.51
2019-04-21T11:04:07.555Z,1015.48
2019-04-21T11:05:05.108Z,1015.48
2019-04-21T11:07:06.783Z,1015.41
2019-04-21T11:08:09.998Z,1015.42
2019-04-21T11:09:51.844Z,1015.41
2019-04-21T11:10:51.945Z,1015.37
2019-04-21T11:12:44.734Z,1015.37
2019-04-21T11:13:44.388Z,1015.38
2019-04-21T11:15:37.327Z,1015.31
2019-04-21T11:16:37.373Z,1015.33
2019-04-21T11:18:31.517Z,1015.28
2019-04-21T11:19:30.783Z,1015.26
2019-04-21T11:21:24.918Z,1015.27
2019-04-21T11:22:25.101Z,1015.22
2019-04-21T11:24:18.155Z,1015.23
2019-04-21T11:25:17.859Z,1015.18
2019-04-21T11:27:10.952Z,1015.25
2019-04-21T11:28:11.171Z,1015.14
2019-04-21T11:30:03.281Z,1015.14
2019-04-21T11:31:04.729Z,1015.15
2019-04-21T11:32:57.163Z,1015.14
2019-04-21T11:33:57.449Z,1015.13
2019-04-21T11:35:49.401Z,1015.10
2019-04-21T11:36:50.225Z,1015.08
2019-04-21T11:38:57.121Z,1015.09
2019-04-21T11:39:51.935Z,1015.04
2019-04-21T11:41:36.278Z,1015.01
2019-04-21T11:42:37.703Z,1015.00
2019-04-21T11:44:29.243Z,1014.97
2019-04-21T11:45:30.578Z,1014.94
2019-04-21T11:49:04.158Z,1014.91
2019-04-21T11:50:03.402Z,1014.92
2019-04-21T11:51:56.510Z,1014.86
2019-04-21T11:52:56.881Z,1014.87
2019-04-21T11:54:49.347Z,1014.89
2019-04-21T11:55:51.780Z,1014.87
2019-04-21T11:57:46.348Z,1014.87
2019-04-21T11:58:43.812Z,1014.81
2019-04-21T12:00:35.846Z,1014.82
2019-04-21T12:01:35.965Z,1014.81
2019-04-21T12:03:29.504Z,1014.76
2019-04-21T12:04:29.542Z,1014.73
2019-04-21T12:06:30.855Z,1014.66
2019-04-21T12:07:22.855Z,1014.71
2019-04-21T12:09:14.864Z,1014.67
2019-04-21T12:10:23.758Z,1014.68
2019-04-21T12:12:09.780Z,1014.66
2019-04-21T12:13:08.334Z,1014.66
2019-04-21T12:15:01.952Z,1014.57
2019-04-21T12:16:03.128Z,1014.53
2019-04-21T12:17:56.346Z,1014.63
2019-04-21T12:18:54.658Z,1014.56
2019-04-21T12:20:47.397Z,1014.53
2019-04-21T12:22:00.397Z,1014.49
2019-04-21T12:23:42.609Z,1014.42
2019-04-21T12:24:40.634Z,1014.48
2019-04-21T12:26:34.230Z,1014.44
2019-04-21T12:29:30.689Z,1014.42
2019-04-21T12:30:33.611Z,1014.36
2019-04-21T12:32:24.152Z,1014.38
2019-04-21T12:33:24.359Z,1014.35
2019-04-21T12:35:17.660Z,1014.36
2019-04-21T12:36:17.860Z,1014.35
2019-04-21T12:38:10.947Z,1014.28
2019-04-21T12:39:10.711Z,1014.23
2019-04-21T12:41:04.512Z,1014.29
2019-04-21T12:42:04.619Z,1014.25
2019-04-21T12:43:56.957Z,1014.19
2019-04-21T12:44:57.252Z,1014.19
2019-04-21T12:46:49.821Z,1014.22
2019-04-21T12:47:50.693Z,1014.20
2019-04-21T12:49:43.699Z,1014.14
2019-04-21T12:50:43.722Z,1014.11
2019-04-21T12:52:35.706Z,1014.12
2019-04-21T12:53:35.902Z,1014.08
2019-04-21T12:55:31.549Z,1014.11
2019-04-21T12:56:29.482Z,1014.08
2019-04-21T12:58:21.621Z,1014.11
2019-04-21T12:59:21.614Z,1014.09
2019-04-21T13:01:14.721Z,1014.01
2019-04-21T13:02:15.974Z,1013.97
2019-04-21T13:04:08.168Z,1013.99
2019-04-21T13:05:07.745Z,1013.96
2019-04-21T13:07:01.474Z,1013.98
2019-04-21T13:08:01.622Z,1013.92
2019-04-21T13:09:54.613Z,1013.88
2019-04-21T13:10:53.996Z,1013.83
2019-04-21T13:12:48.005Z,1013.84
2019-04-21T13:13:48.095Z,1013.81
2019-04-21T13:15:39.978Z,1013.76
2019-04-21T13:16:41.174Z,1013.70
2019-04-21T13:18:33.287Z,1013.67
2019-04-21T13:19:33.518Z,1013.66
2019-04-21T13:21:26.096Z,1013.66
2019-04-21T13:22:26.135Z,1013.64
2019-04-21T13:24:19.966Z,1013.65
2019-04-21T13:25:20.077Z,1013.66
2019-04-21T13:27:12.752Z,1013.53
2019-04-21T13:28:12.563Z,1013.55
2019-04-21T13:30:06.330Z,1013.46
2019-04-21T13:31:06.482Z,1013.45
2019-04-21T13:32:58.930Z,1013.47
2019-04-21T13:33:59.833Z,1013.40
2019-04-21T13:35:53.015Z,1013.36
2019-04-21T13:36:51.773Z,1013.35
2019-04-21T13:39:09.633Z,1013.35
2019-04-21T13:40:09.993Z,1013.35
2019-04-21T13:41:49.414Z,1013.30
2019-04-21T13:42:42.640Z,1013.27
2019-04-21T13:44:30.944Z,1013.23
2019-04-21T13:45:32.055Z,1013.19
2019-04-21T13:47:24.803Z,1013.15
2019-04-21T13:48:24.399Z,1013.21
2019-04-21T13:50:17.348Z,1013.16
2019-04-21T13:51:17.538Z,1013.18
2019-04-21T13:53:09.786Z,1013.14
2019-04-21T13:54:09.823Z,1013.19
2019-04-21T13:56:02.860Z,1013.10
2019-04-21T13:57:02.924Z,1013.08
2019-04-21T13:58:56.016Z,1013.06
2019-04-21T13:59:57.106Z,1013.07
2019-04-21T14:01:49.789Z,1013.02
2019-04-21T14:02:49.086Z,1013.03
2019-04-21T14:04:43.223Z,1012.96
2019-04-21T14:05:42.457Z,1012.97
2019-04-21T14:07:36.348Z,1012.91
2019-04-21T14:08:35.156Z,1012.86
2019-04-21T14:10:29.250Z,1012.83
2019-04-21T14:11:29.275Z,1012.84
2019-04-21T14:13:22.306Z,1012.80
2019-04-21T14:14:21.295Z,1012.81
2019-04-21T14:16:14.312Z,1012.78
2019-04-21T14:17:15.068Z,1012.78
2019-04-21T14:19:07.683Z,1012.72
2019-04-21T14:20:07.430Z,1012.70
2019-04-21T14:22:01.172Z,1012.71
2019-04-21T14:23:13.234Z,1012.65
2019-04-21T14:24:54.118Z,1012.64
2019-04-21T14:25:53.551Z,1012.68
2019-04-21T14:27:49.067Z,1012.63
2019-04-21T14:28:47.208Z,1012.67
2019-04-21T14:30:40.718Z,1012.61
2019-04-21T14:31:40.225Z,1012.61
2019-04-21T14:33:33.847Z,1012.55
2019-04-21T14:34:34.012Z,1012.52
2019-04-21T14:36:26.557Z,1012.46
2019-04-21T14:37:26.558Z,1012.43
2019-04-21T14:39:18.797Z,1012.45
2019-04-21T14:40:23.996Z,1012.55
2019-04-21T14:42:11.997Z,1012.50
2019-04-21T14:43:12.047Z,1012.46
2019-04-21T14:45:05.071Z,1012.47
2019-04-21T14:46:06.365Z,1012.45
2019-04-21T14:47:58.961Z,1012.40
2019-04-21T14:48:59.254Z,1012.37
2019-04-21T14:50:52.379Z,1012.41
2019-04-21T14:51:51.140Z,1012.35
2019-04-21T14:53:44.160Z,1012.38
2019-04-21T14:54:44.640Z,1012.40
2019-04-21T14:56:37.458Z,1012.34
2019-04-21T14:57:37.261Z,1012.35
2019-04-21T14:59:31.095Z,1012.37
2019-04-21T15:00:31.268Z,1012.30
2019-04-21T15:02:23.317Z,1012.32
2019-04-21T15:03:23.688Z,1012.24
2019-04-21T15:05:17.496Z,1012.25
2019-04-21T15:06:16.438Z,1012.23
2019-04-21T15:08:09.439Z,1012.20
2019-04-21T15:09:09.520Z,1012.20
2019-04-21T15:11:03.236Z,1012.24
2019-04-21T15:12:02.599Z,1012.22
2019-04-21T15:13:55.957Z,1012.15
2019-04-21T15:14:56.000Z,1012.14
2019-04-21T15:16:49.036Z,1012.15
2019-04-21T15:17:49.445Z,1012.16
2019-04-21T15:19:42.841Z,1012.10
2019-04-21T15:20:42.786Z,1012.07
2019-04-21T15:22:34.802Z,1012.06
2019-04-21T15:23:36.119Z,1012.05
2019-04-21T15:25:28.002Z,1012.01
2019-04-21T15:26:28.442Z,1011.97
2019-04-21T15:28:22.007Z,1011.97
2019-04-21T15:29:20.947Z,1011.93
2019-04-21T15:31:21.848Z,1011.90
2019-04-21T15:32:14.892Z,1011.87
2019-04-21T15:34:07.423Z,1011.84
2019-04-21T15:35:07.076Z,1011.86
2019-04-21T15:37:00.076Z,1011.86
2019-04-21T15:38:00.138Z,1011.82
2019-04-21T15:39:53.161Z,1011.81
2019-04-21T15:40:57.071Z,1011.80
2019-04-21T15:42:46.542Z,1011.77
2019-04-21T15:43:46.751Z,1011.74
2019-04-21T15:45:39.289Z,1011.73
2019-04-21T15:46:39.891Z,1011.73
2019-04-21T15:48:33.079Z,1011.71
2019-04-21T15:49:42.134Z,1011.66
2019-04-21T15:51:25.969Z,1011.64
2019-04-21T15:52:25.522Z,1011.62
2019-04-21T15:54:18.560Z,1011.63
2019-04-21T15:55:18.887Z,1011.60
2019-04-21T15:57:13.952Z,1011.61
2019-04-21T15:58:12.326Z,1011.58
2019-04-21T16:00:04.712Z,1011.53
2019-04-21T16:01:04.849Z,1011.53
2019-04-21T16:02:58.373Z,1011.51
2019-04-21T16:04:00.423Z,1011.54
2019-04-21T16:05:50.856Z,1011.54
2019-04-21T16:06:50.769Z,1011.53
2019-04-21T16:08:47.624Z,1011.52
2019-04-21T16:09:44.003Z,1011.54
2019-04-21T16:11:37.908Z,1011.49
2019-04-21T16:12:37.905Z,1011.46
2019-04-21T16:14:29.914Z,1011.46
2019-04-21T16:15:30.351Z,1011.45
2019-04-21T16:17:23.525Z,1011.46
2019-04-21T16:18:24.396Z,1011.41
2019-04-21T16:20:17.536Z,1011.45
2019-04-21T16:21:16.073Z,1011.41
2019-04-21T16:23:10.589Z,1011.37
2019-04-21T16:24:09.141Z,1011.38
2019-04-21T16:26:02.616Z,1011.32
2019-04-21T16:27:05.288Z,1011.38
2019-04-21T16:28:55.735Z,1011.34
2019-04-21T16:29:55.880Z,1011.34
2019-04-21T16:31:49.126Z,1011.34
2019-04-21T16:32:49.890Z,1011.29
2019-04-21T16:34:49.785Z,1011.28
2019-04-21T16:35:42.019Z,1011.30
2019-04-21T16:37:35.424Z,1011.28
2019-04-21T16:38:35.482Z,1011.28
2019-04-21T16:40:40.785Z,1011.27
2019-04-21T16:41:28.668Z,1011.23
2019-04-21T16:43:21.068Z,1011.22
2019-04-21T16:44:21.105Z,1011.19
2019-04-21T16:46:14.104Z,1011.15
2019-04-21T16:47:14.167Z,1011.16
2019-04-21T16:49:07.511Z,1011.16
2019-04-21T16:50:07.793Z,1011.13
2019-04-21T16:52:00.292Z,1011.16
2019-04-21T16:53:01.691Z,1011.10
2019-04-21T16:54:53.800Z,1011.08
2019-04-21T16:55:53.377Z,1011.06
2019-04-21T16:57:58.398Z,1011.06
2019-04-21T16:58:46.434Z,1011.05
2019-04-21T17:00:44.844Z,1011.02
2019-04-21T17:01:40.688Z,1011.01
2019-04-21T17:03:32.742Z,1010.99
2019-04-21T17:04:33.737Z,1011.00
2019-04-21T17:06:26.917Z,1010.96
2019-04-21T17:07:26.275Z,1010.99
2019-04-21T17:09:18.843Z,1010.95
2019-04-21T17:10:18.697Z,1010.90
2019-04-21T17:12:14.244Z,1010.92
2019-04-21T17:13:11.764Z,1010.89
2019-04-21T17:15:21.414Z,1010.88
2019-04-21T17:16:29.880Z,1010.88
2019-04-21T17:18:17.933Z,1010.86
2019-04-21T17:19:08.786Z,1010.83
2019-04-21T17:20:56.186Z,1010.84
2019-04-21T17:21:52.112Z,1010.82
2019-04-21T17:23:44.263Z,1010.82
2019-04-21T17:24:44.396Z,1010.76
2019-04-21T17:26:39.400Z,1010.75
2019-04-21T17:27:37.063Z,1010.75
2019-04-21T17:29:30.479Z,1010.73
2019-04-21T17:30:30.594Z,1010.74
2019-04-21T17:32:25.053Z,1010.70
2019-04-21T17:33:26.893Z,1010.74
2019-04-21T17:35:16.685Z,1010.69
2019-04-21T17:36:16.812Z,1010.74
2019-04-21T17:38:09.959Z,1010.71
2019-04-21T17:39:10.967Z,1010.70
2019-04-21T17:41:14.170Z,1010.67
2019-04-21T17:42:14.236Z,1010.70
2019-04-21T17:43:56.201Z,1010.64
2019-04-21T17:44:55.439Z,1010.68
2019-04-21T17:46:54.487Z,1010.67
2019-04-21T17:47:54.427Z,1010.65
2019-04-21T17:49:41.521Z,1010.64
2019-04-21T17:50:41.552Z,1010.68
2019-04-21T17:52:38.847Z,1010.66
2019-04-21T17:53:41.415Z,1010.62
2019-04-21T17:55:31.290Z,1010.64
2019-04-21T17:56:55.107Z,1010.60
2019-04-21T17:58:34.139Z,1010.66
2019-04-21T17:59:54.944Z,1010.65
2019-04-21T18:01:40.836Z,1010.69
2019-04-21T18:02:38.586Z,1010.64
2019-04-21T18:04:24.367Z,1010.61
2019-04-21T18:05:29.063Z,1010.64
2019-04-21T18:07:15.204Z,1010.66
2019-04-21T18:08:21.473Z,1010.64
2019-04-21T18:10:08.734Z,1010.63
2019-04-21T18:11:03.436Z,1010.64
2019-04-21T18:12:57.253Z,1010.64
2019-04-21T18:13:47.234Z,1010.68
2019-04-21T18:15:53.443Z,1010.67
2019-04-21T18:16:42.777Z,1010.69
2019-04-21T18:18:32.903Z,1010.69
2019-04-21T18:19:36.362Z,1010.70
2019-04-21T18:21:25.144Z,1010.69
2019-04-21T18:22:34.715Z,1010.69
2019-04-21T18:24:22.583Z,1010.65
2019-04-21T18:25:30.740Z,1010.65
2019-04-21T18:27:11.480Z,1010.69
2019-04-21T18:28:12.460Z,1010.74
2019-04-21T18:30:04.480Z,1010.72
2019-04-21T18:31:04.712Z,1010.71
2019-04-21T18:32:59.974Z,1010.70
2019-04-21T18:34:04.417Z,1010.68
2019-04-21T18:35:55.090Z,1010.72